Pomona, MO

8:34 PM CDT on August 29, 2015 (GMT -0500)
West Plains Municipal | | Change Station
CLOSE
Current Station
Airport
Location: West Plains,
Elevation: 1227 ft
Nearby Weather Stations

Elev 1227 ft 36.88 °N, 91.91 °W | Updated 41 minutes ago

Clear
Clear
71 °F
Feels Like 71 °F
N
5
Wind Variable Wind from ESE

Today
High -- | Low -- °F
--% Chance of Precip.
Yesterday
High -- | Low -- °F
Precip. -- in
6:35 AM 7:40 PM
Full, 100% visible
Pressure 30.01 in
Visibility 10.0 miles
Clouds Clear
Dew Point 65 °F
Humidity 81%
Rainfall 0.17 in
Snow Depth Not available.
UV 0 out of 12
Pollen 9.60 out of 12
Air Quality Not available.
Flu Activity Not available.
METAR KUNO 300053Z AUTO 12004KT 10SM CLR 22/18 A3004 RMK AO2 SLP161 T02170183
Pressure 30.01 in
Visibility 10.0 miles
Clouds Clear
Dew Point 65 °F
Humidity 81%
Rainfall 0.17 in
Snow Depth Not available.
UV 0 out of 12
Pollen 9.60 out of 12
Air Quality Not available.
Flu Activity Not available.
METAR KUNO 300053Z AUTO 12004KT 10SM CLR 22/18 A3004 RMK AO2 SLP161 T02170183

10-Day Weather Forecast

×

Almanac

Astronomy

Aug. 29, 2015 Rise Set
Actual Time
Civil Twilight
Nautical Twilight
Astronomical Twilight
Moon
Length of Visible Light
Length of Day
Tomorrow will be .
, % of the Moon is Illuminated

Today's Extremes

State Highs State Lows

Community

WunderPhotos

Upload Photos

1,850,827 photos uploaded!

WunderBlogs® & News

Nearby

Air Quality

  Air Quality AQ Index Pollutant
Not available.

Snow Depth

Station Depth Elevation

Earthquake Activity

City Distance Mag. Time & Date
Minimum magnitude displayed is 2.5.

Coastal Water Temperatures

Place Temperature

Stations

Nearby Weather Stations

Station Location Temp. Windchill Dew Point Humidity Wind Precip. Elev Updated Type